createdAt,value
2019-05-30T00:00:23.720Z,20.70
2019-05-30T00:05:28.565Z,20.80
2019-05-30T00:10:33.205Z,20.75
2019-05-30T00:15:38.127Z,21.26
2019-05-30T00:20:44.484Z,21.07
2019-05-30T00:25:49.280Z,21.04
2019-05-30T00:30:53.960Z,20.98
2019-05-30T00:35:59.748Z,21.38
2019-05-30T00:41:04.468Z,20.79
2019-05-30T00:46:09.283Z,20.52
2019-05-30T00:51:13.842Z,21.01
2019-05-30T00:56:18.463Z,21.38
2019-05-30T01:01:23.058Z,20.73
2019-05-30T01:06:27.948Z,20.54
2019-05-30T01:11:32.590Z,20.77
2019-05-30T01:16:37.128Z,20.56
2019-05-30T01:21:41.873Z,20.87
2019-05-30T01:26:46.614Z,19.90
2019-05-30T01:31:51.358Z,20.65
2019-05-30T01:36:55.998Z,20.99
2019-05-30T01:42:01.741Z,21.10
2019-05-30T01:47:06.616Z,21.11
2019-05-30T01:52:11.971Z,20.92
2019-05-30T01:57:17.638Z,21.16
2019-05-30T02:02:22.279Z,21.22
2019-05-30T02:07:27.038Z,21.46
2019-05-30T02:12:31.765Z,21.53
2019-05-30T02:17:36.512Z,21.00
2019-05-30T02:22:41.354Z,20.98
2019-05-30T02:27:46.099Z,20.79
2019-05-30T02:32:50.735Z,20.84
2019-05-30T02:37:55.486Z,21.01
2019-05-30T02:43:01.269Z,19.84
2019-05-30T02:48:07.384Z,20.48
2019-05-30T02:53:13.027Z,20.68
2019-05-30T02:58:18.144Z,20.86
2019-05-30T03:03:22.892Z,21.01
2019-05-30T03:08:27.535Z,19.91
2019-05-30T03:13:33.299Z,20.54
2019-05-30T03:18:38.043Z,20.39
2019-05-30T03:23:42.887Z,20.74
2019-05-30T03:28:47.757Z,20.72
2019-05-30T03:33:52.479Z,20.38
2019-05-30T03:38:58.759Z,20.50
2019-05-30T03:44:04.055Z,20.59
2019-05-30T03:49:14.944Z,20.62
2019-05-30T03:54:19.034Z,20.72
2019-05-30T03:59:27.059Z,19.97
2019-05-30T04:04:34.013Z,20.11
2019-05-30T04:09:38.801Z,20.92
2019-05-30T04:14:43.641Z,21.24
2019-05-30T04:19:48.232Z,21.39
2019-05-30T04:24:52.937Z,20.24
2019-05-30T04:29:58.032Z,21.11
2019-05-30T04:35:03.102Z,21.36
2019-05-30T04:40:11.074Z,20.71
2019-05-30T04:45:17.942Z,21.08
2019-05-30T04:50:23.094Z,21.21
2019-05-30T04:55:27.834Z,21.37
2019-05-30T05:00:32.580Z,20.28
2019-05-30T05:05:37.332Z,20.79
2019-05-30T05:10:42.068Z,21.19
2019-05-30T05:15:47.124Z,20.92
2019-05-30T05:20:51.859Z,21.30
2019-05-30T05:26:01.049Z,21.11
2019-05-30T05:31:02.784Z,21.72
2019-05-30T05:36:07.528Z,21.80
2019-05-30T05:41:12.272Z,21.92
2019-05-30T05:46:16.917Z,21.90
2019-05-30T05:51:22.712Z,20.78
2019-05-30T05:56:27.524Z,21.02
2019-05-30T06:01:32.167Z,21.06
2019-05-30T06:06:36.823Z,21.78
2019-05-30T06:11:41.886Z,22.04
2019-05-30T06:16:46.600Z,21.99
2019-05-30T06:21:54.241Z,21.71
2019-05-30T06:26:57.724Z,21.76
2019-05-30T06:32:02.678Z,22.03
2019-05-30T06:37:07.210Z,21.93
2019-05-30T06:42:12.859Z,21.75
2019-05-30T06:47:17.937Z,22.21
2019-05-30T06:52:22.870Z,21.61
2019-05-30T06:57:27.523Z,21.89
2019-05-30T07:02:32.600Z,21.76
2019-05-30T07:07:38.810Z,22.24
2019-05-30T07:12:43.590Z,21.74
2019-05-30T07:17:48.257Z,22.06
2019-05-30T07:22:52.804Z,22.95
2019-05-30T07:27:57.521Z,23.90
2019-05-30T07:33:02.371Z,23.65
2019-05-30T07:38:07.109Z,24.74
2019-05-30T07:43:11.754Z,24.91
2019-05-30T07:48:16.287Z,24.84
2019-05-30T07:53:20.866Z,25.77
2019-05-30T07:58:25.573Z,26.45
2019-05-30T08:03:30.482Z,26.92
2019-05-30T08:08:36.122Z,26.96
2019-05-30T08:13:40.923Z,26.71
2019-05-30T08:18:45.780Z,26.14
2019-05-30T08:23:50.442Z,27.27
2019-05-30T08:28:55.269Z,26.69
2019-05-30T08:34:00.014Z,27.59
2019-05-30T08:39:06.538Z,27.85
2019-05-30T08:44:11.343Z,28.46
2019-05-30T08:49:15.988Z,28.41
2019-05-30T08:54:20.732Z,28.19
2019-05-30T08:59:25.514Z,28.39
2019-05-30T09:04:30.224Z,27.81
2019-05-30T09:09:36.027Z,27.85
2019-05-30T09:14:41.190Z,29.23
2019-05-30T09:19:47.557Z,28.46
2019-05-30T09:24:52.265Z,29.30
2019-05-30T09:29:56.967Z,29.11
2019-05-30T09:35:01.657Z,28.79
2019-05-30T09:40:10.748Z,29.59
2019-05-30T09:45:15.958Z,28.83
2019-05-30T09:50:20.713Z,28.49
2019-05-30T09:55:25.336Z,28.58
2019-05-30T10:00:31.829Z,29.42
2019-05-30T10:05:36.571Z,29.05
2019-05-30T10:10:41.095Z,29.67
2019-05-30T10:15:46.855Z,30.22
2019-05-30T10:20:53.579Z,30.81
2019-05-30T10:25:58.210Z,30.24
2019-05-30T10:31:02.854Z,30.08
2019-05-30T10:36:07.394Z,29.67
2019-05-30T10:41:12.436Z,30.05
2019-05-30T10:46:17.786Z,29.41
2019-05-30T10:51:24.029Z,29.73
2019-05-30T10:56:29.308Z,30.13
2019-05-30T11:01:34.879Z,30.05
2019-05-30T11:07:10.547Z,29.92
2019-05-30T11:12:06.530Z,29.94
2019-05-30T11:17:13.239Z,30.86
2019-05-30T11:22:20.538Z,30.15
2019-05-30T11:27:26.545Z,30.06
2019-05-30T11:32:31.885Z,28.29
2019-05-30T11:37:37.623Z,28.61
2019-05-30T11:42:43.234Z,29.08
2019-05-30T11:47:49.551Z,29.24
2019-05-30T11:52:55.792Z,30.15
2019-05-30T11:58:01.468Z,30.04
2019-05-30T12:03:06.940Z,28.39
2019-05-30T12:08:12.178Z,28.73
2019-05-30T12:13:17.238Z,28.17
2019-05-30T12:18:22.272Z,28.34
2019-05-30T12:23:27.466Z,28.09
2019-05-30T12:28:35.419Z,27.96
2019-05-30T12:33:40.724Z,28.76
2019-05-30T12:38:46.241Z,28.49
2019-05-30T12:43:52.980Z,28.87
2019-05-30T12:48:59.424Z,28.28
2019-05-30T12:54:05.227Z,28.01
2019-05-30T12:59:11.286Z,29.70
2019-05-30T13:04:16.729Z,29.64
2019-05-30T13:09:22.127Z,29.39
2019-05-30T13:14:28.055Z,29.52
2019-05-30T13:19:33.719Z,28.47
2019-05-30T13:24:39.077Z,28.15
2019-05-30T13:29:44.505Z,28.21
2019-05-30T13:34:50.525Z,28.23
2019-05-30T13:39:55.573Z,28.37
2019-05-30T13:45:02.129Z,27.81
2019-05-30T13:50:13.022Z,28.24
2019-05-30T13:55:16.402Z,27.13
2019-05-30T14:00:21.418Z,26.70
2019-05-30T14:05:26.870Z,25.97
2019-05-30T14:10:32.682Z,26.00
2019-05-30T14:15:38.509Z,26.00
2019-05-30T14:20:44.529Z,25.82
2019-05-30T14:25:49.836Z,24.99
2019-05-30T14:30:55.498Z,24.84
2019-05-30T14:36:04.417Z,25.32
2019-05-30T14:41:09.553Z,24.74
2019-05-30T14:46:14.753Z,25.12
2019-05-30T14:51:19.889Z,25.33
2019-05-30T14:56:25.672Z,25.18
2019-05-30T15:01:31.268Z,25.07
2019-05-30T15:06:37.289Z,25.62
2019-05-30T15:11:43.022Z,26.00
2019-05-30T15:16:48.118Z,26.77
2019-05-30T15:21:53.879Z,26.99
2019-05-30T15:27:01.010Z,27.25
2019-05-30T15:32:10.219Z,26.83
2019-05-30T15:37:16.896Z,25.78
2019-05-30T15:42:22.395Z,26.03
2019-05-30T15:47:27.930Z,26.44
2019-05-30T15:52:33.060Z,26.39
2019-05-30T15:57:40.177Z,26.80
2019-05-30T16:02:46.181Z,26.70
2019-05-30T16:07:51.765Z,25.71
2019-05-30T16:12:57.799Z,26.12
2019-05-30T16:18:03.919Z,25.76
2019-05-30T16:23:09.656Z,26.01
2019-05-30T16:28:15.762Z,25.61
2019-05-30T16:33:22.145Z,26.24
2019-05-30T16:38:28.751Z,26.49
2019-05-30T16:43:34.617Z,26.61
2019-05-30T16:48:42.567Z,26.49
2019-05-30T16:53:49.452Z,26.27
2019-05-30T16:58:55.182Z,25.66
2019-05-30T17:04:00.868Z,25.89
2019-05-30T17:09:07.161Z,25.99
2019-05-30T17:14:12.231Z,24.68
2019-05-30T17:19:18.230Z,25.20
2019-05-30T17:24:25.220Z,25.01
2019-05-30T17:29:33.197Z,25.21
2019-05-30T17:34:39.604Z,24.74
2019-05-30T17:39:46.678Z,23.84
2019-05-30T17:44:53.591Z,23.36
2019-05-30T17:49:59.155Z,23.46
2019-05-30T17:55:06.601Z,23.82
2019-05-30T18:00:13.329Z,23.49
2019-05-30T18:05:20.351Z,23.05
2019-05-30T18:10:26.855Z,23.34
2019-05-30T18:15:32.518Z,23.33
2019-05-30T18:20:47.626Z,22.86
2019-05-30T18:25:44.940Z,23.18
2019-05-30T18:30:50.337Z,22.68
2019-05-30T18:35:56.973Z,22.57
2019-05-30T18:41:11.475Z,23.16
2019-05-30T18:46:10.016Z,22.62
2019-05-30T18:51:15.727Z,23.01
2019-05-30T18:56:21.841Z,23.13
2019-05-30T19:01:31.485Z,22.86
2019-05-30T19:06:38.005Z,22.66
2019-05-30T19:11:45.311Z,22.18
2019-05-30T19:16:51.022Z,22.66
2019-05-30T19:21:56.700Z,22.63
2019-05-30T19:27:02.331Z,22.80
2019-05-30T19:32:07.270Z,21.84
2019-05-30T19:37:13.303Z,22.74
2019-05-30T19:42:20.579Z,22.41
2019-05-30T19:47:28.539Z,21.92
2019-05-30T19:52:34.804Z,22.31
2019-05-30T19:57:40.374Z,22.28
2019-05-30T20:02:45.649Z,21.98
2019-05-30T20:07:51.064Z,22.43
2019-05-30T20:12:56.928Z,22.57
2019-05-30T20:18:03.080Z,22.61
2019-05-30T20:23:09.812Z,22.43
2019-05-30T20:28:15.196Z,22.36
2019-05-30T20:33:20.770Z,21.98
2019-05-30T20:38:26.781Z,22.22
2019-05-30T20:43:34.865Z,22.31
2019-05-30T20:48:42.772Z,22.29
2019-05-30T20:53:47.613Z,22.13
2019-05-30T20:58:55.111Z,21.90
2019-05-30T21:04:01.393Z,22.11
2019-05-30T21:09:08.231Z,22.17
2019-05-30T21:14:15.665Z,21.96
2019-05-30T21:19:23.701Z,21.73
2019-05-30T21:24:29.600Z,22.10
2019-05-30T21:29:36.780Z,22.14
2019-05-30T21:34:44.435Z,22.02
2019-05-30T21:39:50.834Z,21.83
2019-05-30T21:44:56.181Z,22.32
2019-05-30T21:50:01.404Z,22.38
2019-05-30T21:55:07.957Z,22.21
2019-05-30T22:00:14.628Z,22.30
2019-05-30T22:05:21.369Z,22.41
2019-05-30T22:10:28.281Z,22.53
2019-05-30T22:15:33.818Z,22.43
2019-05-30T22:20:38.555Z,22.21
2019-05-30T22:25:44.175Z,22.41
2019-05-30T22:30:50.667Z,22.03
2019-05-30T22:35:55.442Z,22.01
2019-05-30T22:41:00.538Z,21.79
2019-05-30T22:46:05.337Z,21.77
2019-05-30T22:51:09.983Z,22.19
2019-05-30T22:56:16.861Z,22.42
2019-05-30T23:01:21.518Z,21.75
2019-05-30T23:06:26.916Z,21.05
2019-05-30T23:11:32.438Z,21.02
2019-05-30T23:16:37.521Z,21.37
2019-05-30T23:21:42.333Z,20.81
2019-05-30T23:26:49.451Z,20.96
2019-05-30T23:31:54.484Z,20.80
2019-05-30T23:37:00.921Z,20.75
2019-05-30T23:42:05.716Z,20.95
2019-05-30T23:47:10.494Z,19.85
2019-05-30T23:52:15.301Z,20.02
2019-05-30T23:57:21.278Z,20.16
